sensor_id;sensor_type;location;lat;lon;timestamp;P1;durP1;ratioP1;P2;durP2;ratioP2
49153;SDS011;49455;52.252;9.124;2024-03-08T07:11:06;62.05;;;26.83;;
49153;SDS011;49455;52.252;9.124;2024-03-08T07:16:06;59.80;;;29.65;;
49153;SDS011;49455;52.252;9.124;2024-03-08T07:21:10;62.65;;;28.15;;
49153;SDS011;49455;52.252;9.124;2024-03-08T07:26:16;63.00;;;29.67;;
49153;SDS011;49455;52.252;9.124;2024-03-08T07:31:16;59.58;;;29.02;;
49153;SDS011;49455;52.252;9.124;2024-03-08T07:36:17;59.72;;;28.90;;
49153;SDS011;49455;52.252;9.124;2024-03-08T07:41:17;61.00;;;30.08;;
49153;SDS011;49455;52.252;9.124;2024-03-08T07:46:17;59.35;;;28.42;;
49153;SDS011;49455;52.252;9.124;2024-03-08T07:51:18;58.00;;;27.88;;
49153;SDS011;49455;52.252;9.124;2024-03-08T07:56:19;61.95;;;30.73;;
49153;SDS011;49455;52.252;9.124;2024-03-08T08:01:19;70.03;;;31.88;;
49153;SDS011;49455;52.252;9.124;2024-03-08T08:06:20;63.92;;;31.45;;
49153;SDS011;49455;52.252;9.124;2024-03-08T08:11:20;62.03;;;31.40;;
49153;SDS011;49455;52.252;9.124;2024-03-08T08:16:24;67.82;;;32.83;;
49153;SDS011;49455;52.252;9.124;2024-03-08T08:21:24;171.75;;;43.13;;
49153;SDS011;49455;52.252;9.124;2024-03-08T08:26:25;61.50;;;29.40;;
49153;SDS011;49455;52.252;9.124;2024-03-08T08:31:25;63.60;;;30.35;;
49153;SDS011;49455;52.252;9.124;2024-03-08T08:36:26;64.07;;;32.00;;
49153;SDS011;49455;52.252;9.124;2024-03-08T08:41:29;59.80;;;30.65;;
49153;SDS011;49455;52.252;9.124;2024-03-08T08:46:30;65.88;;;31.48;;
49153;SDS011;49455;52.252;9.124;2024-03-08T08:51:30;58.05;;;28.35;;
49153;SDS011;49455;52.252;9.124;2024-03-08T08:56:31;60.25;;;28.70;;
49153;SDS011;49455;52.252;9.124;2024-03-08T09:01:32;52.67;;;23.20;;
49153;SDS011;49455;52.252;9.124;2024-03-08T09:06:32;53.22;;;26.52;;
49153;SDS011;49455;52.252;9.124;2024-03-08T09:11:33;52.03;;;24.63;;
49153;SDS011;49455;52.252;9.124;2024-03-08T09:16:33;50.65;;;26.73;;
49153;SDS011;49455;52.252;9.124;2024-03-08T09:21:34;54.50;;;28.55;;
49153;SDS011;49455;52.252;9.124;2024-03-08T09:26:34;53.20;;;27.95;;
49153;SDS011;49455;52.252;9.124;2024-03-08T09:31:34;49.50;;;26.02;;
49153;SDS011;49455;52.252;9.124;2024-03-08T09:36:35;49.90;;;26.67;;
49153;SDS011;49455;52.252;9.124;2024-03-08T09:41:35;47.80;;;24.58;;
49153;SDS011;49455;52.252;9.124;2024-03-08T09:46:36;52.03;;;27.25;;
49153;SDS011;49455;52.252;9.124;2024-03-08T09:51:37;50.05;;;27.23;;
49153;SDS011;49455;52.252;9.124;2024-03-08T09:56:41;51.33;;;26.38;;
49153;SDS011;49455;52.252;9.124;2024-03-08T10:01:43;52.17;;;29.05;;
49153;SDS011;49455;52.252;9.124;2024-03-08T10:06:44;46.30;;;26.35;;
49153;SDS011;49455;52.252;9.124;2024-03-08T10:11:45;47.70;;;25.73;;
49153;SDS011;49455;52.252;9.124;2024-03-08T10:16:46;48.40;;;25.35;;
49153;SDS011;49455;52.252;9.124;2024-03-08T10:21:49;50.53;;;24.95;;
49153;SDS011;49455;52.252;9.124;2024-03-08T10:26:55;49.20;;;26.13;;
49153;SDS011;49455;52.252;9.124;2024-03-08T10:31:59;47.23;;;25.40;;
49153;SDS011;49455;52.252;9.124;2024-03-08T10:37:02;46.90;;;24.83;;
49153;SDS011;49455;52.252;9.124;2024-03-08T10:42:04;45.88;;;24.60;;
49153;SDS011;49455;52.252;9.124;2024-03-08T10:47:17;47.72;;;25.88;;
49153;SDS011;49455;52.252;9.124;2024-03-08T11:17:04;44.13;;;23.70;;
49153;SDS011;49455;52.252;9.124;2024-03-08T12:10:14;39.17;;;22.88;;
49153;SDS011;49455;52.252;9.124;2024-03-08T12:15:16;40.03;;;21.80;;
49153;SDS011;49455;52.252;9.124;2024-03-08T12:20:18;36.35;;;18.23;;
49153;SDS011;49455;52.252;9.124;2024-03-08T12:25:19;41.15;;;23.90;;
49153;SDS011;49455;52.252;9.124;2024-03-08T12:30:24;42.05;;;23.13;;
49153;SDS011;49455;52.252;9.124;2024-03-08T12:35:27;41.67;;;25.10;;
49153;SDS011;49455;52.252;9.124;2024-03-08T12:40:32;40.75;;;21.83;;
49153;SDS011;49455;52.252;9.124;2024-03-08T12:45:33;39.67;;;21.52;;
49153;SDS011;49455;52.252;9.124;2024-03-08T12:50:33;41.72;;;21.38;;
49153;SDS011;49455;52.252;9.124;2024-03-08T12:55:34;44.60;;;24.10;;
49153;SDS011;49455;52.252;9.124;2024-03-08T13:00:34;40.63;;;22.88;;
49153;SDS011;49455;52.252;9.124;2024-03-08T13:05:35;41.83;;;22.45;;
49153;SDS011;49455;52.252;9.124;2024-03-08T13:10:35;39.55;;;21.63;;
49153;SDS011;49455;52.252;9.124;2024-03-08T13:15:42;39.72;;;23.63;;
49153;SDS011;49455;52.252;9.124;2024-03-08T13:20:49;42.65;;;23.88;;
49153;SDS011;49455;52.252;9.124;2024-03-08T13:25:50;41.65;;;24.45;;
49153;SDS011;49455;52.252;9.124;2024-03-08T13:30:53;41.05;;;24.35;;
49153;SDS011;49455;52.252;9.124;2024-03-08T13:36:05;44.60;;;24.55;;
49153;SDS011;49455;52.252;9.124;2024-03-08T13:41:06;40.65;;;22.67;;
49153;SDS011;49455;52.252;9.124;2024-03-08T13:46:06;41.75;;;24.80;;
49153;SDS011;49455;52.252;9.124;2024-03-08T13:51:07;43.00;;;23.90;;
49153;SDS011;49455;52.252;9.124;2024-03-08T13:56:08;44.60;;;25.92;;
49153;SDS011;49455;52.252;9.124;2024-03-08T14:01:08;43.40;;;25.52;;
49153;SDS011;49455;52.252;9.124;2024-03-08T14:06:09;44.78;;;24.05;;
49153;SDS011;49455;52.252;9.124;2024-03-08T14:11:10;42.33;;;24.83;;
49153;SDS011;49455;52.252;9.124;2024-03-08T14:16:11;41.55;;;25.15;;
49153;SDS011;49455;52.252;9.124;2024-03-08T14:21:11;39.25;;;21.83;;
49153;SDS011;49455;52.252;9.124;2024-03-08T14:26:12;38.65;;;21.83;;
49153;SDS011;49455;52.252;9.124;2024-03-08T14:31:12;43.15;;;24.92;;
49153;SDS011;49455;52.252;9.124;2024-03-08T14:36:13;40.85;;;22.55;;
49153;SDS011;49455;52.252;9.124;2024-03-08T14:41:13;40.05;;;24.05;;
49153;SDS011;49455;52.252;9.124;2024-03-08T14:46:16;41.85;;;25.23;;
49153;SDS011;49455;52.252;9.124;2024-03-08T14:51:17;40.28;;;25.17;;
49153;SDS011;49455;52.252;9.124;2024-03-08T14:56:18;41.80;;;25.17;;
49153;SDS011;49455;52.252;9.124;2024-03-08T15:01:19;43.67;;;25.13;;
49153;SDS011;49455;52.252;9.124;2024-03-08T15:06:19;43.80;;;25.55;;
49153;SDS011;49455;52.252;9.124;2024-03-08T15:11:20;40.42;;;23.27;;
49153;SDS011;49455;52.252;9.124;2024-03-08T15:16:22;44.78;;;26.58;;
49153;SDS011;49455;52.252;9.124;2024-03-08T15:21:23;42.20;;;23.50;;
49153;SDS011;49455;52.252;9.124;2024-03-08T15:26:23;46.33;;;24.65;;
49153;SDS011;49455;52.252;9.124;2024-03-08T15:31:23;44.85;;;24.40;;
49153;SDS011;49455;52.252;9.124;2024-03-08T15:36:24;46.15;;;27.42;;
49153;SDS011;49455;52.252;9.124;2024-03-08T15:41:24;46.03;;;27.73;;
49153;SDS011;49455;52.252;9.124;2024-03-08T15:46:25;44.17;;;25.80;;
49153;SDS011;49455;52.252;9.124;2024-03-08T15:51:26;47.05;;;26.50;;
49153;SDS011;49455;52.252;9.124;2024-03-08T15:56:26;41.65;;;22.50;;
49153;SDS011;49455;52.252;9.124;2024-03-08T16:01:26;47.72;;;27.65;;
49153;SDS011;49455;52.252;9.124;2024-03-08T16:06:27;46.50;;;25.60;;
49153;SDS011;49455;52.252;9.124;2024-03-08T16:11:27;43.40;;;26.30;;
49153;SDS011;49455;52.252;9.124;2024-03-08T16:16:28;42.47;;;23.20;;
49153;SDS011;49455;52.252;9.124;2024-03-08T16:21:28;45.70;;;26.48;;
49153;SDS011;49455;52.252;9.124;2024-03-08T16:26:29;47.38;;;27.30;;
49153;SDS011;49455;52.252;9.124;2024-03-08T16:31:29;48.95;;;25.90;;
49153;SDS011;49455;52.252;9.124;2024-03-08T16:36:29;46.10;;;26.05;;
49153;SDS011;49455;52.252;9.124;2024-03-08T16:41:33;43.30;;;24.10;;
49153;SDS011;49455;52.252;9.124;2024-03-08T16:46:33;37.80;;;19.48;;
49153;SDS011;49455;52.252;9.124;2024-03-08T16:51:37;45.92;;;26.50;;
49153;SDS011;49455;52.252;9.124;2024-03-08T16:56:47;42.63;;;24.45;;
49153;SDS011;49455;52.252;9.124;2024-03-08T17:01:50;44.83;;;25.65;;
49153;SDS011;49455;52.252;9.124;2024-03-08T17:06:51;37.00;;;18.90;;
49153;SDS011;49455;52.252;9.124;2024-03-08T17:11:51;47.60;;;27.55;;
49153;SDS011;49455;52.252;9.124;2024-03-08T17:16:51;44.08;;;23.42;;
49153;SDS011;49455;52.252;9.124;2024-03-08T17:21:52;49.00;;;26.33;;
49153;SDS011;49455;52.252;9.124;2024-03-08T17:26:53;47.50;;;25.83;;
49153;SDS011;49455;52.252;9.124;2024-03-08T17:31:53;49.63;;;26.73;;
49153;SDS011;49455;52.252;9.124;2024-03-08T17:36:54;44.88;;;26.48;;
49153;SDS011;49455;52.252;9.124;2024-03-08T17:41:54;45.47;;;24.70;;
49153;SDS011;49455;52.252;9.124;2024-03-08T17:46:55;46.03;;;25.25;;
49153;SDS011;49455;52.252;9.124;2024-03-08T17:51:56;44.28;;;24.15;;
49153;SDS011;49455;52.252;9.124;2024-03-08T17:56:56;42.67;;;21.52;;
49153;SDS011;49455;52.252;9.124;2024-03-08T18:01:56;40.60;;;19.52;;
49153;SDS011;49455;52.252;9.124;2024-03-08T18:06:57;48.75;;;25.98;;
49153;SDS011;49455;52.252;9.124;2024-03-08T18:11:57;45.25;;;23.83;;
49153;SDS011;49455;52.252;9.124;2024-03-08T18:16:58;38.45;;;19.52;;
49153;SDS011;49455;52.252;9.124;2024-03-08T18:21:58;46.58;;;23.83;;
49153;SDS011;49455;52.252;9.124;2024-03-08T18:26:59;45.28;;;23.15;;
49153;SDS011;49455;52.252;9.124;2024-03-08T18:32:01;50.03;;;25.20;;
49153;SDS011;49455;52.252;9.124;2024-03-08T18:37:02;37.97;;;18.73;;
49153;SDS011;49455;52.252;9.124;2024-03-08T18:42:02;33.88;;;16.23;;
49153;SDS011;49455;52.252;9.124;2024-03-08T18:47:03;52.95;;;26.50;;
49153;SDS011;49455;52.252;9.124;2024-03-08T18:52:04;47.75;;;23.85;;
49153;SDS011;49455;52.252;9.124;2024-03-08T18:57:07;51.95;;;27.85;;
49153;SDS011;49455;52.252;9.124;2024-03-08T19:02:07;49.53;;;24.75;;
49153;SDS011;49455;52.252;9.124;2024-03-08T19:07:11;48.00;;;26.83;;
49153;SDS011;49455;52.252;9.124;2024-03-08T19:12:11;44.75;;;24.42;;
49153;SDS011;49455;52.252;9.124;2024-03-08T19:17:12;39.03;;;19.20;;
49153;SDS011;49455;52.252;9.124;2024-03-08T19:22:12;48.22;;;24.65;;
49153;SDS011;49455;52.252;9.124;2024-03-08T19:27:12;47.72;;;24.33;;
49153;SDS011;49455;52.252;9.124;2024-03-08T19:32:15;45.08;;;23.25;;
49153;SDS011;49455;52.252;9.124;2024-03-08T19:37:16;46.17;;;22.92;;
49153;SDS011;49455;52.252;9.124;2024-03-08T19:42:16;50.85;;;20.48;;
49153;SDS011;49455;52.252;9.124;2024-03-08T19:47:17;42.17;;;23.05;;
49153;SDS011;49455;52.252;9.124;2024-03-08T19:52:17;40.83;;;21.65;;
49153;SDS011;49455;52.252;9.124;2024-03-08T19:57:18;35.95;;;19.25;;
49153;SDS011;49455;52.252;9.124;2024-03-08T20:02:18;38.88;;;20.35;;
49153;SDS011;49455;52.252;9.124;2024-03-08T20:07:19;42.17;;;21.52;;
49153;SDS011;49455;52.252;9.124;2024-03-08T20:12:19;33.13;;;16.58;;
49153;SDS011;49455;52.252;9.124;2024-03-08T20:17:20;38.20;;;19.33;;
49153;SDS011;49455;52.252;9.124;2024-03-08T20:22:20;34.03;;;14.95;;
49153;SDS011;49455;52.252;9.124;2024-03-08T20:27:21;28.90;;;12.32;;
49153;SDS011;49455;52.252;9.124;2024-03-08T20:32:21;25.70;;;12.63;;
49153;SDS011;49455;52.252;9.124;2024-03-08T20:37:22;35.05;;;17.85;;
49153;SDS011;49455;52.252;9.124;2024-03-08T20:42:22;36.75;;;19.27;;
49153;SDS011;49455;52.252;9.124;2024-03-08T20:47:22;34.67;;;17.90;;
49153;SDS011;49455;52.252;9.124;2024-03-08T20:52:23;34.00;;;17.20;;
49153;SDS011;49455;52.252;9.124;2024-03-08T20:57:23;32.50;;;16.67;;
49153;SDS011;49455;52.252;9.124;2024-03-08T21:02:24;32.20;;;16.52;;
49153;SDS011;49455;52.252;9.124;2024-03-08T21:07:24;34.55;;;18.40;;
49153;SDS011;49455;52.252;9.124;2024-03-08T21:12:25;30.98;;;16.45;;
49153;SDS011;49455;52.252;9.124;2024-03-08T21:17:25;34.25;;;18.30;;
49153;SDS011;49455;52.252;9.124;2024-03-08T21:22:25;31.88;;;15.75;;
49153;SDS011;49455;52.252;9.124;2024-03-08T21:27:26;33.60;;;17.98;;
49153;SDS011;49455;52.252;9.124;2024-03-08T21:32:26;32.38;;;17.75;;
49153;SDS011;49455;52.252;9.124;2024-03-08T21:37:27;32.85;;;16.23;;
49153;SDS011;49455;52.252;9.124;2024-03-08T21:42:27;37.22;;;17.08;;
49153;SDS011;49455;52.252;9.124;2024-03-08T21:47:28;33.03;;;16.40;;
49153;SDS011;49455;52.252;9.124;2024-03-08T21:52:28;32.17;;;18.45;;
49153;SDS011;49455;52.252;9.124;2024-03-08T21:57:29;34.05;;;18.30;;
49153;SDS011;49455;52.252;9.124;2024-03-08T22:02:29;38.28;;;18.70;;
49153;SDS011;49455;52.252;9.124;2024-03-08T22:07:30;37.35;;;19.40;;
49153;SDS011;49455;52.252;9.124;2024-03-08T22:12:31;35.47;;;18.40;;
49153;SDS011;49455;52.252;9.124;2024-03-08T22:17:32;33.28;;;16.73;;
49153;SDS011;49455;52.252;9.124;2024-03-08T22:22:32;36.10;;;18.58;;
49153;SDS011;49455;52.252;9.124;2024-03-08T22:27:32;38.03;;;19.45;;
49153;SDS011;49455;52.252;9.124;2024-03-08T22:32:33;35.50;;;19.13;;
49153;SDS011;49455;52.252;9.124;2024-03-08T22:37:33;41.08;;;19.77;;
49153;SDS011;49455;52.252;9.124;2024-03-08T22:42:34;32.92;;;18.73;;
49153;SDS011;49455;52.252;9.124;2024-03-08T22:47:34;37.00;;;19.77;;
49153;SDS011;49455;52.252;9.124;2024-03-08T22:52:35;39.85;;;19.88;;
49153;SDS011;49455;52.252;9.124;2024-03-08T22:57:35;40.90;;;21.52;;
49153;SDS011;49455;52.252;9.124;2024-03-08T23:02:36;39.10;;;20.50;;
49153;SDS011;49455;52.252;9.124;2024-03-08T23:07:36;39.40;;;20.80;;
49153;SDS011;49455;52.252;9.124;2024-03-08T23:12:40;42.55;;;22.20;;
49153;SDS011;49455;52.252;9.124;2024-03-08T23:17:41;39.53;;;21.45;;
49153;SDS011;49455;52.252;9.124;2024-03-08T23:22:43;29.88;;;13.90;;
49153;SDS011;49455;52.252;9.124;2024-03-08T23:32:48;39.42;;;21.02;;
49153;SDS011;49455;52.252;9.124;2024-03-08T23:37:49;36.67;;;20.92;;
49153;SDS011;49455;52.252;9.124;2024-03-08T23:42:50;36.50;;;20.20;;
49153;SDS011;49455;52.252;9.124;2024-03-08T23:47:51;42.88;;;22.08;;
49153;SDS011;49455;52.252;9.124;2024-03-08T23:52:53;37.80;;;20.67;;
49153;SDS011;49455;52.252;9.124;2024-03-08T23:57:57;38.28;;;21.13;;
